Time;durP1;ratioP1;P1;durP2;ratioP2;P2;SDS_P1;SDS_P2;PMS_P1;PMS_P2;Temp;Humidity;BMP_temperature;BMP_pressure;BME280_temperature;BME280_humidity;BME280_pressure;Samples;Min_cycle;Max_cycle;Signal;HPM_P1;HPM_P2
2022/01/11 00:00:36;;;;;;;36.55;22.52;;;1.30;99.90;;;;;;4991592;28;20116;-84
2022/01/11 00:03:04;;;;;;;32.03;21.77;;;1.50;99.90;;;;;;4994822;28;20191;-86
2022/01/11 00:05:35;;;;;;;32.78;20.73;;;1.60;99.90;;;;;;4997558;28;20049;-85
2022/01/11 00:08:01;;;;;;;31.05;19.30;;;1.50;99.90;;;;;;4959359;28;21547;-86
2022/01/11 00:10:31;;;;;;;30.55;21.42;;;1.60;99.90;;;;;;4993648;28;20529;-86
2022/01/11 00:12:59;;;;;;;34.97;21.58;;;1.50;99.90;;;;;;4960989;28;20486;-85
2022/01/11 00:15:27;;;;;;;33.83;21.20;;;1.60;99.90;;;;;;4978395;28;20053;-86
2022/01/11 00:17:53;;;;;;;32.67;21.20;;;1.40;99.90;;;;;;4994043;28;20089;-86
2022/01/11 00:20:20;;;;;;;31.90;22.17;;;1.40;99.90;;;;;;4977792;28;20394;-86
2022/01/11 00:25:39;;;;;;;33.83;20.63;;;1.40;99.90;;;;;;4963710;28;20050;-85
2022/01/11 00:28:06;;;;;;;34.92;20.63;;;1.40;99.90;;;;;;4985150;28;20128;-86
2022/01/11 00:30:35;;;;;;;30.25;20.75;;;1.40;99.90;;;;;;4983316;28;20034;-86
2022/01/11 00:33:06;;;;;;;31.33;20.00;;;1.50;99.90;;;;;;4963183;28;20038;-86
2022/01/11 00:38:35;;;;;;;29.15;19.15;;;1.40;99.90;;;;;;4994972;28;20042;-86
2022/01/11 00:41:17;;;;;;;29.55;19.50;;;1.40;99.90;;;;;;4981133;28;20038;-86
2022/01/11 00:44:03;;;;;;;36.80;21.00;;;1.40;99.90;;;;;;4987094;28;20061;-86
2022/01/11 00:46:29;;;;;;;31.88;20.35;;;1.40;99.90;;;;;;4998178;28;20075;-86
2022/01/11 00:51:29;;;;;;;35.28;19.95;;;1.40;99.90;;;;;;4987267;28;20042;-56
2022/01/11 00:53:55;;;;;;;29.45;19.50;;;1.40;99.90;;;;;;4977677;28;20081;-57
2022/01/11 00:56:21;;;;;;;33.20;19.27;;;1.20;99.90;;;;;;5004358;27;20068;-58
2022/01/11 00:58:47;;;;;;;27.70;18.17;;;1.40;99.90;;;;;;4991064;28;20500;-55
2022/01/11 01:01:13;;;;;;;32.97;20.75;;;1.40;99.90;;;;;;5009551;28;20135;-54
2022/01/11 01:03:39;;;;;;;30.67;19.55;;;1.30;99.90;;;;;;4999344;28;20030;-58
2022/01/11 01:06:05;;;;;;;26.88;18.90;;;1.40;99.90;;;;;;4982948;28;20048;-58
2022/01/11 01:08:31;;;;;;;29.98;19.85;;;1.40;99.90;;;;;;4994580;28;20072;-56
2022/01/11 01:10:57;;;;;;;34.25;19.65;;;1.30;99.90;;;;;;4977513;28;20504;-56
2022/01/11 01:13:27;;;;;;;26.40;18.17;;;1.30;99.90;;;;;;4979912;28;20268;-57
2022/01/11 01:15:55;;;;;;;28.58;18.60;;;1.30;99.90;;;;;;4994848;28;20080;-57
2022/01/11 01:18:24;;;;;;;29.45;19.45;;;1.30;99.90;;;;;;4995400;28;20034;-56
2022/01/11 01:20:52;;;;;;;29.75;19.17;;;1.30;99.90;;;;;;4988144;28;20048;-56
2022/01/11 01:23:18;;;;;;;26.67;17.45;;;1.30;99.90;;;;;;4986579;28;20038;-58
2022/01/11 01:25:45;;;;;;;32.38;20.58;;;1.20;99.90;;;;;;5016022;27;20411;-57
2022/01/11 01:28:11;;;;;;;31.00;21.02;;;1.30;99.90;;;;;;5004077;28;20160;-58
2022/01/11 01:30:38;;;;;;;34.42;20.05;;;1.30;99.90;;;;;;4990515;28;20077;-58
2022/01/11 01:33:04;;;;;;;39.05;18.83;;;1.30;99.90;;;;;;4984467;28;20403;-59
2022/01/11 01:35:36;;;;;;;31.52;19.63;;;1.30;99.90;;;;;;4990838;28;20503;-57
2022/01/11 01:38:02;;;;;;;27.05;18.42;;;1.30;99.90;;;;;;4991161;28;20041;-56
2022/01/11 01:40:35;;;;;;;33.55;19.83;;;1.30;99.90;;;;;;4980656;28;20169;-58
2022/01/11 01:43:03;;;;;;;38.40;18.63;;;1.40;99.90;;;;;;4980187;28;20045;-58
2022/01/11 01:45:28;;;;;;;33.28;18.73;;;1.40;99.90;;;;;;4999478;28;20528;-55
2022/01/11 01:47:57;;;;;;;29.45;18.42;;;1.40;99.90;;;;;;4972328;28;20136;-58
2022/01/11 01:50:24;;;;;;;34.55;18.52;;;1.50;99.90;;;;;;4987039;28;20049;-58
2022/01/11 01:52:50;;;;;;;31.90;17.30;;;1.50;99.90;;;;;;4954511;28;20353;-57
2022/01/11 01:55:16;;;;;;;32.38;18.58;;;1.50;99.90;;;;;;4988868;28;20045;-57
2022/01/11 01:57:42;;;;;;;30.13;17.42;;;1.50;99.90;;;;;;4996850;28;20037;-56
2022/01/11 02:00:11;;;;;;;34.38;18.48;;;1.70;99.90;;;;;;4985681;28;20045;-59
2022/01/11 02:02:39;;;;;;;34.47;18.38;;;1.60;99.90;;;;;;4996138;27;20169;-58
2022/01/11 02:05:06;;;;;;;32.03;19.02;;;1.60;99.90;;;;;;4987446;28;20046;-58
2022/01/11 02:07:33;;;;;;;31.73;17.98;;;1.60;99.90;;;;;;4988828;28;20095;-57
2022/01/11 02:10:01;;;;;;;33.35;17.50;;;1.50;99.90;;;;;;4992873;28;20048;-59
2022/01/11 02:12:28;;;;;;;35.33;19.42;;;1.60;99.90;;;;;;4990950;28;20053;-58
2022/01/11 02:14:54;;;;;;;30.38;18.13;;;1.60;99.90;;;;;;4991795;27;20567;-57
2022/01/11 02:17:19;;;;;;;29.45;17.05;;;1.60;99.90;;;;;;5007450;28;20126;-58
2022/01/11 02:19:45;;;;;;;31.27;19.02;;;1.50;99.90;;;;;;5016606;28;20053;-57
2022/01/11 02:22:11;;;;;;;34.63;19.10;;;1.50;99.90;;;;;;4989785;28;20050;-59
2022/01/11 02:24:37;;;;;;;34.38;17.90;;;1.60;99.90;;;;;;4991790;28;20044;-56
2022/01/11 02:27:03;;;;;;;41.85;21.08;;;1.50;99.90;;;;;;4975243;28;20041;-56
2022/01/11 02:29:29;;;;;;;33.60;19.40;;;1.50;99.90;;;;;;4992966;28;20428;-57
2022/01/11 02:31:55;;;;;;;37.17;20.27;;;1.50;99.90;;;;;;4966816;28;20128;-57
2022/01/11 02:34:21;;;;;;;36.33;19.98;;;1.50;99.90;;;;;;4991252;28;20052;-58
2022/01/11 02:36:46;;;;;;;36.67;20.75;;;1.50;99.90;;;;;;4987723;27;20029;-58
2022/01/11 02:39:12;;;;;;;37.58;20.58;;;1.50;99.90;;;;;;4991334;28;20685;-57
2022/01/11 02:41:50;;;;;;;37.50;21.25;;;1.50;99.90;;;;;;4990643;28;20050;-58
2022/01/11 02:44:16;;;;;;;32.53;20.42;;;1.50;99.90;;;;;;4973946;28;20042;-58
2022/01/11 02:46:41;;;;;;;36.83;19.90;;;1.50;99.90;;;;;;5008999;28;20048;-58
2022/01/11 02:49:07;;;;;;;42.80;22.80;;;1.50;99.90;;;;;;4979675;27;20040;-58
2022/01/11 02:51:33;;;;;;;37.85;20.85;;;1.50;99.90;;;;;;4993697;28;20041;-58
2022/01/11 02:53:59;;;;;;;34.60;20.40;;;1.50;99.90;;;;;;4983933;28;20124;-58
2022/01/11 02:56:25;;;;;;;31.90;20.25;;;1.50;99.90;;;;;;5021025;27;20548;-57
2022/01/11 02:58:52;;;;;;;36.08;20.48;;;1.50;99.90;;;;;;4994831;28;20038;-58
2022/01/11 03:01:18;;;;;;;36.28;20.98;;;1.50;99.90;;;;;;5003321;27;20072;-56
2022/01/11 03:03:44;;;;;;;41.13;20.73;;;1.50;99.90;;;;;;4996443;28;20125;-58
2022/01/11 03:06:10;;;;;;;32.83;20.10;;;1.50;99.90;;;;;;5023730;27;20116;-58
2022/01/11 03:08:42;;;;;;;36.75;19.67;;;1.50;99.90;;;;;;5004685;28;20038;-57
2022/01/11 03:11:11;;;;;;;37.22;19.00;;;1.50;99.90;;;;;;5005103;27;20041;-58
2022/01/11 03:13:39;;;;;;;45.88;21.63;;;1.50;99.90;;;;;;4998784;27;20095;-57
2022/01/11 03:16:06;;;;;;;36.90;20.88;;;1.50;99.90;;;;;;4999332;27;20039;-56
2022/01/11 03:18:32;;;;;;;42.08;19.65;;;1.50;99.90;;;;;;5004918;28;20044;-57
2022/01/11 03:20:57;;;;;;;35.08;20.38;;;1.50;99.90;;;;;;5021902;27;20037;-57
2022/01/11 03:23:23;;;;;;;39.38;20.55;;;1.50;99.90;;;;;;4998919;28;20542;-57
2022/01/11 03:25:51;;;;;;;35.35;19.98;;;1.50;99.90;;;;;;5000845;28;20045;-57
2022/01/11 03:28:19;;;;;;;35.53;20.17;;;1.50;99.90;;;;;;4981848;28;20078;-57
2022/01/11 03:30:45;;;;;;;37.40;21.05;;;1.50;99.90;;;;;;4993145;28;20044;-57
2022/01/11 03:33:11;;;;;;;36.85;21.27;;;1.50;99.90;;;;;;5011502;28;20050;-57
2022/01/11 03:35:38;;;;;;;38.28;22.38;;;1.50;99.90;;;;;;5001803;28;20070;-57
2022/01/11 03:38:07;;;;;;;38.38;22.02;;;1.50;99.90;;;;;;5005716;28;20048;-57
2022/01/11 03:40:32;;;;;;;45.50;22.63;;;1.50;99.90;;;;;;5000972;28;20083;-57
2022/01/11 03:42:59;;;;;;;40.78;22.27;;;1.50;99.90;;;;;;4979188;28;20528;-57
2022/01/11 03:45:26;;;;;;;39.67;22.38;;;1.50;99.90;;;;;;5003580;28;20087;-56
2022/01/11 03:47:55;;;;;;;43.67;21.83;;;1.50;99.90;;;;;;5012052;28;20053;-57
2022/01/11 03:50:21;;;;;;;38.47;20.52;;;1.50;99.90;;;;;;5005689;28;20056;-57
2022/01/11 03:55:31;;;;;;;42.67;22.98;;;1.60;99.90;;;;;;5004345;28;20056;-54
2022/01/11 03:57:57;;;;;;;41.33;21.83;;;1.60;99.90;;;;;;4981343;28;20210;-54
2022/01/11 04:00:23;;;;;;;43.92;22.30;;;1.60;99.90;;;;;;4984956;28;20040;-52
2022/01/11 04:02:49;;;;;;;42.72;23.23;;;1.60;99.90;;;;;;4990114;28;20508;-55
2022/01/11 04:05:15;;;;;;;40.15;22.70;;;1.60;99.90;;;;;;4992530;28;20115;-53
2022/01/11 04:07:41;;;;;;;44.13;23.13;;;1.60;99.90;;;;;;4993861;28;20049;-55
2022/01/11 04:10:08;;;;;;;42.40;21.70;;;1.60;99.90;;;;;;4991679;28;20561;-55
2022/01/11 04:12:34;;;;;;;39.05;21.73;;;1.70;99.90;;;;;;5014556;28;20051;-53
2022/01/11 04:15:00;;;;;;;39.78;20.88;;;1.70;99.90;;;;;;4995361;28;20079;-53
2022/01/11 04:17:26;;;;;;;41.45;22.65;;;1.70;99.90;;;;;;4989556;28;20038;-56
2022/01/11 04:19:52;;;;;;;45.22;22.20;;;1.70;99.90;;;;;;5004894;28;20512;-56
2022/01/11 04:22:19;;;;;;;49.20;21.75;;;1.70;99.90;;;;;;4981584;28;20069;-55
2022/01/11 04:24:45;;;;;;;46.08;22.65;;;1.70;99.90;;;;;;4992449;28;20231;-53
2022/01/11 04:27:11;;;;;;;43.38;21.83;;;1.70;99.90;;;;;;4983122;28;20142;-52
2022/01/11 04:29:37;;;;;;;40.95;21.15;;;1.80;99.90;;;;;;5002507;28;20054;-54
2022/01/11 04:32:03;;;;;;;41.30;21.73;;;1.70;99.90;;;;;;4976312;28;20332;-54
2022/01/11 04:34:29;;;;;;;43.42;22.45;;;1.80;99.90;;;;;;4970128;28;20403;-53
2022/01/11 04:36:55;;;;;;;42.15;21.55;;;1.80;99.90;;;;;;5003498;28;20041;-53
2022/01/11 04:39:22;;;;;;;45.60;21.85;;;1.80;99.90;;;;;;4995990;28;20038;-52
2022/01/11 04:41:49;;;;;;;43.95;23.30;;;1.80;99.90;;;;;;4984237;28;20044;-53
2022/01/11 04:44:15;;;;;;;44.78;22.90;;;1.80;99.90;;;;;;5011222;28;20488;-55
2022/01/11 04:46:40;;;;;;;38.70;21.70;;;1.80;99.90;;;;;;4995735;28;20187;-54
2022/01/11 04:49:07;;;;;;;43.20;22.63;;;1.80;99.90;;;;;;4997442;28;20129;-52
2022/01/11 04:51:34;;;;;;;46.70;22.75;;;1.70;99.90;;;;;;4992209;28;20609;-54
2022/01/11 04:54:01;;;;;;;41.78;21.60;;;1.70;99.90;;;;;;5004162;28;20175;-56
2022/01/11 04:56:28;;;;;;;42.17;22.52;;;1.70;99.90;;;;;;4976796;28;20054;-54
2022/01/11 04:58:54;;;;;;;41.92;22.77;;;1.70;99.90;;;;;;4999344;28;20502;-52
2022/01/11 05:01:20;;;;;;;40.03;21.92;;;1.70;99.90;;;;;;4991146;28;20393;-54
2022/01/11 05:03:46;;;;;;;43.92;23.90;;;1.70;99.90;;;;;;4998010;28;20042;-53
2022/01/11 05:06:12;;;;;;;44.75;22.15;;;1.70;99.90;;;;;;5006810;28;20042;-54
2022/01/11 05:08:37;;;;;;;46.72;22.23;;;1.70;99.90;;;;;;4997576;28;20314;-55
2022/01/11 05:11:03;;;;;;;47.08;23.73;;;1.70;99.90;;;;;;4997627;28;20041;-56
2022/01/11 05:13:31;;;;;;;44.63;20.73;;;1.70;99.90;;;;;;4999488;28;20537;-56
2022/01/11 05:15:59;;;;;;;40.90;21.40;;;1.70;99.90;;;;;;4979149;28;20447;-57
2022/01/11 05:18:25;;;;;;;41.47;21.95;;;1.70;99.90;;;;;;4994832;28;20049;-56
2022/01/11 05:20:51;;;;;;;39.97;20.73;;;1.70;99.90;;;;;;4978648;28;20461;-56
2022/01/11 05:23:16;;;;;;;43.75;22.52;;;1.70;99.90;;;;;;4997423;28;20029;-57
2022/01/11 05:25:43;;;;;;;48.35;22.98;;;1.60;99.90;;;;;;4991227;28;20555;-55
2022/01/11 05:28:08;;;;;;;40.53;22.05;;;1.60;99.90;;;;;;4997783;28;20050;-53
2022/01/11 05:30:35;;;;;;;43.00;20.60;;;1.60;99.90;;;;;;5004198;28;20132;-57
2022/01/11 05:33:00;;;;;;;43.67;21.40;;;1.60;99.90;;;;;;4999078;28;20074;-54
2022/01/11 05:35:27;;;;;;;42.45;20.83;;;1.60;99.90;;;;;;5005941;28;20073;-55
2022/01/11 05:37:53;;;;;;;41.25;21.75;;;1.60;99.90;;;;;;4997691;28;20058;-55
2022/01/11 05:40:20;;;;;;;43.90;21.08;;;1.60;99.90;;;;;;4987515;28;20038;-57
2022/01/11 05:42:48;;;;;;;46.03;23.10;;;1.60;99.90;;;;;;4995060;28;20037;-53
2022/01/11 05:45:14;;;;;;;41.63;21.13;;;1.60;99.90;;;;;;4996615;28;20116;-53
2022/01/11 05:47:40;;;;;;;44.78;22.25;;;1.60;99.90;;;;;;4997335;28;20061;-54
2022/01/11 05:50:09;;;;;;;42.70;22.35;;;1.60;99.90;;;;;;5000926;28;20037;-55
2022/01/11 05:52:35;;;;;;;43.08;22.20;;;1.50;99.90;;;;;;5001095;28;20799;-55
2022/01/11 05:55:03;;;;;;;45.00;22.35;;;1.50;99.90;;;;;;4992393;28;20055;-56
2022/01/11 05:57:29;;;;;;;44.28;22.70;;;1.50;99.90;;;;;;4997403;28;20266;-55
2022/01/11 05:59:54;;;;;;;46.47;21.13;;;1.50;99.90;;;;;;4998632;28;20445;-54
2022/01/11 06:02:20;;;;;;;43.97;21.48;;;1.50;99.90;;;;;;4995110;28;20075;-55
2022/01/11 06:04:46;;;;;;;39.15;20.23;;;1.50;99.90;;;;;;5007360;28;20573;-54
2022/01/11 06:07:12;;;;;;;43.13;20.50;;;1.50;99.90;;;;;;4979565;28;20239;-54
2022/01/11 06:09:37;;;;;;;45.83;20.50;;;1.50;99.90;;;;;;5005479;28;20078;-55
2022/01/11 06:12:04;;;;;;;46.78;22.23;;;1.50;99.90;;;;;;4984028;28;20053;-54
2022/01/11 06:14:29;;;;;;;46.28;22.70;;;1.40;99.90;;;;;;4998647;28;20159;-55
2022/01/11 06:16:55;;;;;;;43.42;20.92;;;1.40;99.90;;;;;;4999504;28;20136;-55
2022/01/11 06:19:21;;;;;;;38.55;20.58;;;1.40;99.90;;;;;;4989653;28;20040;-56
2022/01/11 06:21:47;;;;;;;40.90;20.25;;;1.40;99.90;;;;;;5004315;28;20048;-53
2022/01/11 06:24:13;;;;;;;40.45;19.38;;;1.40;99.90;;;;;;4980505;28;20050;-56
2022/01/11 06:26:39;;;;;;;46.88;21.35;;;1.40;99.90;;;;;;4999822;28;20035;-56
2022/01/11 06:29:05;;;;;;;47.92;22.83;;;1.40;99.90;;;;;;4994542;28;20042;-54
2022/01/11 06:31:32;;;;;;;42.78;21.90;;;1.30;99.90;;;;;;4991718;28;20057;-53
2022/01/11 06:33:58;;;;;;;44.20;21.75;;;1.30;99.90;;;;;;4991163;28;20489;-56
2022/01/11 06:36:24;;;;;;;42.67;20.63;;;1.30;99.90;;;;;;4991435;28;20046;-54
2022/01/11 06:38:50;;;;;;;42.45;19.98;;;1.30;99.90;;;;;;4996551;28;20646;-55
2022/01/11 06:41:15;;;;;;;40.53;20.40;;;1.30;99.90;;;;;;4993263;28;20049;-56
2022/01/11 06:43:41;;;;;;;39.38;18.48;;;1.30;99.90;;;;;;4997096;28;20034;-54
2022/01/11 06:46:07;;;;;;;39.80;19.00;;;1.30;99.90;;;;;;4997692;28;20457;-52
2022/01/11 06:48:33;;;;;;;35.00;19.98;;;1.20;99.90;;;;;;4997087;28;20253;-53
2022/01/11 06:50:59;;;;;;;40.38;18.75;;;1.30;99.90;;;;;;4996414;28;20172;-56
2022/01/11 06:53:25;;;;;;;32.53;18.05;;;1.30;99.90;;;;;;4989778;28;20083;-57
2022/01/11 06:55:53;;;;;;;36.45;19.83;;;1.20;99.90;;;;;;4991144;28;20617;-56
2022/01/11 06:58:19;;;;;;;38.63;19.15;;;1.20;99.90;;;;;;5009482;28;20449;-56
2022/01/11 07:00:45;;;;;;;37.65;19.45;;;1.20;99.90;;;;;;4991690;28;20047;-56
2022/01/11 07:03:11;;;;;;;40.13;19.17;;;1.20;99.90;;;;;;4989327;28;20054;-57
2022/01/11 07:05:37;;;;;;;42.40;20.33;;;1.20;99.90;;;;;;5002755;28;20127;-56
2022/01/11 07:08:04;;;;;;;40.75;19.10;;;1.20;99.90;;;;;;4996390;28;20054;-56
2022/01/11 07:10:30;;;;;;;37.95;17.90;;;1.20;99.90;;;;;;4992806;28;20052;-56
2022/01/11 07:12:57;;;;;;;37.05;18.90;;;1.20;99.90;;;;;;4991950;28;20049;-56
2022/01/11 07:15:23;;;;;;;38.70;20.77;;;1.20;99.90;;;;;;4999317;28;20054;-56
2022/01/11 07:17:49;;;;;;;38.75;19.60;;;1.20;99.90;;;;;;4998140;28;20120;-56
2022/01/11 07:20:14;;;;;;;37.30;19.95;;;1.20;99.90;;;;;;4979244;28;20114;-57
2022/01/11 07:22:40;;;;;;;40.35;19.83;;;1.20;99.90;;;;;;4990660;28;20630;-56
2022/01/11 07:25:06;;;;;;;38.08;19.13;;;1.20;99.90;;;;;;5011176;28;20042;-55
2022/01/11 07:27:34;;;;;;;37.35;19.67;;;1.20;99.90;;;;;;4992693;28;20120;-54
2022/01/11 07:30:00;;;;;;;38.10;18.52;;;1.20;99.90;;;;;;4993025;28;20049;-57
2022/01/11 07:32:26;;;;;;;41.83;20.55;;;1.10;99.90;;;;;;4964580;28;20148;-56
2022/01/11 07:34:52;;;;;;;40.55;19.80;;;1.10;99.90;;;;;;4997494;28;20374;-57
2022/01/11 07:37:17;;;;;;;34.75;19.55;;;1.10;99.90;;;;;;4992894;28;20042;-56
2022/01/11 07:39:43;;;;;;;34.70;18.30;;;1.10;99.90;;;;;;5006787;28;20489;-57
2022/01/11 07:42:09;;;;;;;39.20;20.15;;;1.10;99.90;;;;;;4991168;28;20064;-56
2022/01/11 07:44:35;;;;;;;38.67;20.30;;;1.10;99.90;;;;;;4993303;28;20050;-56
2022/01/11 07:47:03;;;;;;;40.60;20.10;;;1.20;99.90;;;;;;4999156;28;20380;-56
2022/01/11 07:49:29;;;;;;;34.30;18.17;;;1.10;99.90;;;;;;4991290;28;20053;-56
2022/01/11 07:51:55;;;;;;;38.55;19.85;;;1.10;99.90;;;;;;4995360;28;20053;-54
2022/01/11 07:54:21;;;;;;;40.25;20.17;;;1.10;99.90;;;;;;4996268;28;20048;-53
2022/01/11 07:56:46;;;;;;;41.72;19.73;;;1.10;99.90;;;;;;4974837;28;20057;-55
2022/01/11 07:59:13;;;;;;;39.05;21.30;;;1.00;99.90;;;;;;4986934;28;20041;-53
2022/01/11 08:01:39;;;;;;;39.30;20.25;;;1.00;99.90;;;;;;4988003;28;20057;-56
2022/01/11 08:04:06;;;;;;;44.45;20.48;;;1.00;99.90;;;;;;4989584;28;20034;-56
2022/01/11 08:06:35;;;;;;;38.65;19.90;;;1.00;99.90;;;;;;4996243;28;20484;-53
2022/01/11 08:09:01;;;;;;;38.40;19.98;;;1.00;99.90;;;;;;4994064;28;20057;-52
2022/01/11 08:11:27;;;;;;;42.70;20.20;;;1.00;99.90;;;;;;5002593;28;20050;-54
2022/01/11 08:13:53;;;;;;;36.67;20.00;;;1.00;99.90;;;;;;4992862;28;20046;-56
2022/01/11 08:16:19;;;;;;;36.67;19.50;;;0.90;99.90;;;;;;4990113;28;20053;-55
2022/01/11 08:18:44;;;;;;;39.58;20.88;;;0.90;99.90;;;;;;4994568;28;20125;-52
2022/01/11 08:21:10;;;;;;;40.17;21.23;;;0.90;99.90;;;;;;5000572;28;20049;-56
2022/01/11 08:23:36;;;;;;;35.55;18.80;;;0.90;99.90;;;;;;5002644;28;20030;-55
2022/01/11 08:26:03;;;;;;;37.22;20.08;;;0.90;99.90;;;;;;4979562;28;20041;-55
2022/01/11 08:28:29;;;;;;;37.13;19.48;;;0.90;99.90;;;;;;5008154;28;20496;-58
2022/01/11 08:30:57;;;;;;;36.75;17.90;;;0.90;99.90;;;;;;4995794;28;20533;-54
2022/01/11 08:33:23;;;;;;;36.22;19.83;;;0.90;99.90;;;;;;5000476;28;20607;-55
2022/01/11 08:35:49;;;;;;;37.60;20.05;;;0.90;99.90;;;;;;5007494;28;20117;-52
2022/01/11 08:38:15;;;;;;;40.85;20.80;;;0.90;99.90;;;;;;4993403;28;20120;-54
2022/01/11 08:40:41;;;;;;;42.83;19.65;;;0.90;99.90;;;;;;4993320;28;20106;-54
2022/01/11 08:43:07;;;;;;;43.47;22.08;;;0.90;99.90;;;;;;4997855;28;20038;-56
2022/01/11 08:45:34;;;;;;;42.80;21.15;;;0.90;99.90;;;;;;5009272;28;20046;-54
2022/01/11 08:48:00;;;;;;;38.17;19.77;;;0.90;99.90;;;;;;4995779;28;20058;-56
2022/01/11 08:50:26;;;;;;;39.92;20.95;;;0.90;99.90;;;;;;4977051;28;20046;-52
2022/01/11 08:52:52;;;;;;;40.38;21.58;;;0.90;99.90;;;;;;5010263;28;20031;-55
2022/01/11 08:55:18;;;;;;;40.63;21.27;;;0.90;99.90;;;;;;4995645;28;20069;-53
2022/01/11 08:57:44;;;;;;;41.28;22.02;;;0.90;99.90;;;;;;4981503;28;20038;-56
2022/01/11 09:00:18;;;;;;;44.40;23.27;;;0.90;99.90;;;;;;4983550;28;20041;-57
2022/01/11 09:02:51;;;;;;;39.92;21.75;;;0.90;99.90;;;;;;4979999;28;20424;-58
2022/01/11 09:05:17;;;;;;;47.33;22.30;;;0.90;99.90;;;;;;5013498;28;20104;-52
2022/01/11 09:07:43;;;;;;;43.58;23.20;;;0.90;99.90;;;;;;5002612;28;20084;-57
2022/01/11 09:10:10;;;;;;;45.50;23.30;;;0.90;99.90;;;;;;4994301;28;20049;-58
2022/01/11 09:12:37;;;;;;;44.25;21.83;;;0.90;99.90;;;;;;5001823;28;20047;-57
2022/01/11 09:15:05;;;;;;;46.47;22.23;;;0.90;99.90;;;;;;4995211;28;20048;-57
2022/01/11 09:17:31;;;;;;;42.35;22.15;;;0.90;99.90;;;;;;4995229;28;20038;-57
2022/01/11 09:19:57;;;;;;;48.97;25.25;;;0.90;99.90;;;;;;4992376;28;20179;-54
2022/01/11 09:22:23;;;;;;;46.47;24.83;;;0.90;99.90;;;;;;5001286;28;20624;-54
2022/01/11 09:24:49;;;;;;;47.38;23.60;;;0.90;99.90;;;;;;5001638;28;20514;-55
2022/01/11 09:27:15;;;;;;;50.78;24.38;;;0.80;99.90;;;;;;4999748;28;20050;-56
2022/01/11 09:29:41;;;;;;;49.92;24.10;;;0.90;99.90;;;;;;4985233;28;20041;-55
2022/01/11 09:32:09;;;;;;;55.17;25.92;;;0.90;99.90;;;;;;4981105;28;20472;-52
2022/01/11 09:34:37;;;;;;;47.42;23.65;;;0.90;99.90;;;;;;4993324;28;20521;-55
2022/01/11 09:37:03;;;;;;;51.40;26.38;;;0.90;99.90;;;;;;4992682;28;20050;-57
2022/01/11 09:39:29;;;;;;;52.13;24.38;;;1.00;99.90;;;;;;4985726;28;20099;-55
2022/01/11 09:41:58;;;;;;;53.40;26.25;;;0.90;99.90;;;;;;4976888;28;20038;-56
2022/01/11 09:44:24;;;;;;;51.53;23.98;;;1.00;99.90;;;;;;4983275;28;20091;-53
2022/01/11 09:46:50;;;;;;;52.50;26.08;;;1.00;99.90;;;;;;4977657;28;20056;-52
2022/01/11 09:49:15;;;;;;;45.53;23.95;;;1.00;99.90;;;;;;4991658;28;20038;-56
2022/01/11 09:51:41;;;;;;;53.45;25.58;;;1.00;99.90;;;;;;4990387;28;20038;-58
2022/01/11 09:54:08;;;;;;;50.45;24.88;;;1.00;99.90;;;;;;4987478;28;20103;-58
2022/01/11 09:56:35;;;;;;;54.85;25.45;;;1.00;99.90;;;;;;4971576;28;20125;-58
2022/01/11 09:59:02;;;;;;;52.20;24.85;;;1.10;99.90;;;;;;4983804;28;20043;-56
2022/01/11 10:01:28;;;;;;;52.63;26.10;;;1.20;99.90;;;;;;4991365;28;20610;-56
2022/01/11 10:04:14;;;;;;;57.53;27.30;;;1.20;99.90;;;;;;4994302;28;20540;-54
2022/01/11 10:06:44;;;;;;;50.50;24.83;;;1.30;99.90;;;;;;4990816;28;20672;-57
2022/01/11 10:09:20;;;;;;;54.15;26.73;;;1.30;99.90;;;;;;4990106;28;20054;-57
2022/01/11 10:11:49;;;;;;;50.80;25.00;;;1.30;99.90;;;;;;4977487;28;20072;-54
2022/01/11 10:14:26;;;;;;;52.60;26.17;;;1.40;99.90;;;;;;4994929;28;23481;-57
2022/01/11 10:17:09;;;;;;;49.63;26.17;;;1.50;99.90;;;;;;4977264;28;20396;-52
2022/01/11 10:19:41;;;;;;;52.83;26.63;;;1.60;99.90;;;;;;4997155;28;20081;-56
2022/01/11 10:22:11;;;;;;;49.10;25.63;;;1.70;99.90;;;;;;4991276;28;20479;-55
2022/01/11 10:24:39;;;;;;;47.80;24.52;;;1.90;99.90;;;;;;4994310;28;20192;-52
2022/01/11 10:27:24;;;;;;;44.70;23.88;;;1.80;99.90;;;;;;4985988;28;20057;-55
2022/01/11 10:29:56;;;;;;;50.60;25.00;;;1.90;99.90;;;;;;4993590;28;20054;-53
2022/01/11 10:32:31;;;;;;;46.47;24.58;;;1.90;99.90;;;;;;4990503;28;20041;-57
2022/01/11 10:35:08;;;;;;;45.10;24.27;;;1.90;99.90;;;;;;4992780;28;20042;-53
2022/01/11 10:37:34;;;;;;;40.78;22.55;;;1.90;99.90;;;;;;4991287;28;20038;-53
2022/01/11 10:40:30;;;;;;;47.47;25.42;;;2.00;99.90;;;;;;4998406;28;20067;-55
2022/01/11 10:42:58;;;;;;;43.45;24.00;;;2.00;99.90;;;;;;4974287;28;20117;-54
2022/01/11 10:45:51;;;;;;;42.80;23.30;;;2.00;99.90;;;;;;4992510;28;20532;-57
2022/01/11 10:48:20;;;;;;;45.08;24.20;;;2.10;99.90;;;;;;5015122;28;20577;-56
2022/01/11 10:50:52;;;;;;;43.35;22.45;;;2.00;99.90;;;;;;4993395;28;20050;-56
2022/01/11 10:53:26;;;;;;;40.67;21.75;;;2.10;99.90;;;;;;4989607;28;20125;-53
2022/01/11 10:55:58;;;;;;;38.28;21.88;;;2.10;99.90;;;;;;4997305;28;20132;-58
2022/01/11 10:58:25;;;;;;;41.60;21.88;;;2.10;99.90;;;;;;4977340;28;20042;-57
2022/01/11 11:00:56;;;;;;;45.05;24.90;;;2.10;99.90;;;;;;5004557;28;20052;-55
2022/01/11 11:03:24;;;;;;;38.97;23.27;;;2.10;99.90;;;;;;4986460;28;20050;-55
2022/01/11 11:05:55;;;;;;;45.70;24.33;;;2.10;99.90;;;;;;4995359;28;20128;-56
2022/01/11 11:08:38;;;;;;;41.65;22.52;;;2.10;99.90;;;;;;4991802;28;20081;-55
2022/01/11 11:11:06;;;;;;;42.55;22.13;;;2.10;99.90;;;;;;5012633;28;20054;-54
2022/01/11 11:13:33;;;;;;;41.50;22.63;;;2.20;99.90;;;;;;4991273;28;20070;-55
2022/01/11 11:16:11;;;;;;;42.85;24.00;;;2.20;99.90;;;;;;4989015;28;20103;-56
2022/01/11 11:18:52;;;;;;;36.72;22.65;;;2.20;99.90;;;;;;4999345;28;20101;-57
2022/01/11 11:21:33;;;;;;;42.08;21.58;;;2.20;99.90;;;;;;4991688;28;20045;-56
2022/01/11 11:24:07;;;;;;;39.88;21.95;;;2.20;99.90;;;;;;4999277;28;20041;-54
2022/01/11 11:26:59;;;;;;;39.45;21.60;;;2.30;99.90;;;;;;4998994;28;20467;-57
2022/01/11 11:29:26;;;;;;;41.15;21.63;;;2.30;99.90;;;;;;4994659;28;20066;-54
2022/01/11 11:31:53;;;;;;;40.28;21.77;;;2.30;99.90;;;;;;5003201;28;20050;-55
2022/01/11 11:34:22;;;;;;;42.53;21.80;;;2.40;99.90;;;;;;4988872;28;20045;-57
2022/01/11 11:36:50;;;;;;;38.65;21.27;;;2.40;99.90;;;;;;4991954;28;20087;-54
2022/01/11 11:39:20;;;;;;;39.67;22.25;;;2.50;99.90;;;;;;4991252;28;20482;-52
2022/01/11 11:41:53;;;;;;;41.53;21.63;;;2.50;99.90;;;;;;4986493;28;20550;-55
2022/01/11 11:44:25;;;;;;;37.90;21.03;;;2.50;99.90;;;;;;4994994;28;20739;-57
2022/01/11 11:46:55;;;;;;;42.17;22.00;;;2.50;99.90;;;;;;5004415;28;20276;-57
2022/01/11 11:49:45;;;;;;;37.72;22.02;;;2.50;99.90;;;;;;4998129;28;20041;-54
2022/01/11 11:52:26;;;;;;;40.38;21.80;;;2.60;99.90;;;;;;5001155;28;20046;-56
2022/01/11 11:55:01;;;;;;;39.08;20.83;;;2.60;99.90;;;;;;4990274;28;20113;-53
2022/01/11 11:57:32;;;;;;;37.00;20.42;;;2.60;99.90;;;;;;5003623;28;20046;-55
2022/01/11 11:59:59;;;;;;;40.50;20.67;;;2.60;99.90;;;;;;4992576;28;20440;-55
2022/01/11 12:02:33;;;;;;;35.40;20.58;;;2.70;99.90;;;;;;4995045;28;20179;-59
2022/01/11 12:04:58;;;;;;;36.20;20.67;;;2.70;99.90;;;;;;5003495;28;20046;-54
2022/01/11 12:07:41;;;;;;;33.70;20.77;;;2.70;99.90;;;;;;5001778;28;20510;-53
2022/01/11 12:10:14;;;;;;;42.40;20.77;;;2.70;99.90;;;;;;5011849;28;20042;-55
2022/01/11 12:12:51;;;;;;;42.85;21.77;;;2.80;99.90;;;;;;4990345;28;20080;-58
2022/01/11 12:15:32;;;;;;;35.95;19.90;;;2.80;99.90;;;;;;5006020;28;20508;-52
2022/01/11 12:17:57;;;;;;;33.53;19.92;;;2.80;99.90;;;;;;5002263;23;20034;-62
2022/01/11 12:20:45;;;;;;;36.17;19.10;;;2.90;99.90;;;;;;4982316;28;20059;-66
2022/01/11 12:23:20;;;;;;;32.33;19.52;;;2.90;99.90;;;;;;4976272;28;20492;-66
2022/01/11 12:25:53;;;;;;;39.45;19.45;;;2.90;99.90;;;;;;4988895;28;20442;-65
2022/01/11 12:28:22;;;;;;;39.40;18.87;;;2.90;99.90;;;;;;4956442;28;20046;-66
2022/01/11 12:30:48;;;;;;;33.80;19.80;;;2.90;99.90;;;;;;4988800;28;20042;-65
2022/01/11 12:33:17;;;;;;;38.70;18.65;;;2.90;99.90;;;;;;4978994;28;20034;-67
2022/01/11 12:36:01;;;;;;;36.58;20.70;;;3.00;99.90;;;;;;4977862;28;20057;-64
2022/01/11 12:38:33;;;;;;;31.65;18.38;;;3.00;99.90;;;;;;4977612;28;20122;-64
2022/01/11 12:41:33;;;;;;;32.58;17.45;;;3.00;99.90;;;;;;4993851;28;20041;-64
2022/01/11 12:44:17;;;;;;;32.50;18.38;;;3.00;99.90;;;;;;4989376;28;20041;-63
2022/01/11 12:47:00;;;;;;;32.70;18.33;;;3.10;99.90;;;;;;4964573;28;20072;-66
2022/01/11 12:49:30;;;;;;;31.95;17.83;;;3.10;99.90;;;;;;4966024;28;20048;-64
2022/01/11 12:51:58;;;;;;;40.20;19.75;;;3.10;99.90;;;;;;4949910;28;20045;-64